| time (UTC) | temp F | wind direction | speed MPH | gust MPH | rain 1hr in | rain 24hr in | rain mn in | humidity % | barometer mb |
| 20260902161028 | 90 | 115 | 4.0 | 8.0 | 0.00 | 0.00 | 0.00 | 34 | 1015.2 |
| 20260902155515 | 91 | 8 | 3.0 | 10.0 | 0.00 | 0.00 | 0.00 | 33 | 1015.4 |
| 20260902154523 | 91 | 63 | 4.0 | 13.0 | 0.00 | 0.00 | 0.00 | 33 | 1015.2 |
| 20260902153516 | 92 | 114 | 4.0 | 13.0 | 0.00 | 0.00 | 0.00 | 33 | 1015.3 |
| 20260902152524 | 92 | 51 | 3.0 | 8.0 | 0.00 | 0.00 | 0.00 | 32 | 1015.4 |
| 20260902151515 | 92 | 2 | 4.0 | 13.0 | 0.00 | 0.00 | 0.00 | 31 | 1015.3 |
| 20260902150603 | 92 | 123 | 3.0 | 13.0 | 0.00 | 0.00 | 0.00 | 32 | 1015.4 |
| 20260902145516 | 93 | 131 | 6.0 | 15.0 | 0.00 | 0.00 | 0.00 | 31 | 1015.4 |
| 20260902144523 | 93 | 121 | 6.0 | 15.0 | 0.00 | 0.00 | 0.00 | 31 | 1015.4 |
| 20260902143515 | 92 | 114 | 4.0 | 13.0 | 0.00 | 0.00 | 0.00 | 30 | 1015.4 |
| 20260902142523 | 92 | 135 | 7.0 | 17.0 | 0.00 | 0.00 | 0.00 | 31 | 1015.5 |
| 20260902141515 | 93 | 128 | 9.0 | 23.0 | 0.00 | 0.00 | 0.00 | 30 | 1015.6 |
| 20260902140523 | 93 | 125 | 7.0 | 13.0 | 0.00 | 0.00 | 0.00 | 30 | 1015.7 |
| 20260902135516 | 93 | 124 | 7.0 | 20.0 | 0.00 | 0.00 | 0.00 | 29 | 1015.8 |
| 20260902134523 | 92 | 123 | 4.0 | 13.0 | 0.00 | 0.00 | 0.00 | 29 | 1015.8 |
| 20260902133515 | 93 | 131 | 7.0 | 20.0 | 0.00 | 0.00 | 0.00 | 30 | 1015.8 |
| 20260902132523 | 93 | 129 | 8.0 | 17.0 | 0.00 | 0.00 | 0.00 | 30 | 1015.8 |
| 20260902131536 | 93 | 121 | 10.0 | 25.0 | 0.00 | 0.00 | 0.00 | 29 | 1015.9 |
| 20260902130523 | 94 | 129 | 9.0 | 23.0 | 0.00 | 0.00 | 0.00 | 28 | 1016.0 |
| 20260902125516 | 94 | 125 | 6.0 | 13.0 | 0.00 | 0.00 | 0.00 | 28 | 1015.9 |
| 20260902124523 | 93 | 121 | 9.0 | 28.0 | 0.00 | 0.00 | 0.00 | 28 | 1016.0 |
| 20260902123535 | 94 | 124 | 8.0 | 25.0 | 0.00 | 0.00 | 0.00 | 28 | 1016.2 |
| 20260902122523 | 94 | 121 | 9.0 | 25.0 | 0.00 | 0.00 | 0.00 | 28 | 1016.2 |
| 20260902121536 | 94 | 110 | 9.0 | 23.0 | 0.00 | 0.00 | 0.00 | 28 | 1016.5 |
| 20260902120523 | 93 | 18 | 6.0 | 23.0 | 0.00 | 0.00 | 0.00 | 28 | 1016.4 |
| 20260902115516 | 93 | 54 | 7.0 | 17.0 | 0.00 | 0.00 | 0.00 | 28 | 1016.5 |
| 20260902114523 | 93 | 102 | 6.0 | 20.0 | 0.00 | 0.00 | 0.00 | 28 | 1016.5 |
| 20260902113515 | 93 | 104 | 9.0 | 23.0 | 0.00 | 0.00 | 0.00 | 28 | 1016.5 |
| 20260902112523 | 93 | 57 | 8.0 | 25.0 | 0.00 | 0.00 | 0.00 | 28 | 1016.5 |
| 20260902111535 | 93 | 82 | 6.0 | 23.0 | 0.00 | 0.00 | 0.00 | 27 | 1016.6 |
| 20260902110544 | 93 | 27 | 7.0 | 17.0 | 0.00 | 0.00 | 0.00 | 27 | 1016.7 |
| 20260902105515 | 93 | 91 | 7.0 | 17.0 | 0.00 | 0.00 | 0.00 | 26 | 1016.6 |
| 20260902104543 | 93 | 92 | 8.0 | 20.0 | 0.00 | 0.00 | 0.00 | 26 | 1016.8 |
| 20260902103515 | 93 | 138 | 7.0 | 25.0 | 0.00 | 0.00 | 0.00 | 26 | 1016.8 |
| 20260902102523 | 93 | 125 | 8.0 | 17.0 | 0.00 | 0.00 | 0.00 | 27 | 1016.8 |
| 20260902101515 | 93 | 108 | 9.0 | 20.0 | 0.00 | 0.00 | 0.00 | 27 | 1017.1 |
| 20260902100524 | 93 | 128 | 8.0 | 20.0 | 0.00 | 0.00 | 0.00 | 27 | 1017.2 |
| 20260902095515 | 93 | 121 | 10.0 | 30.0 | 0.00 | 0.00 | 0.00 | 28 | 1017.2 |
| 20260902094523 | 93 | 130 | 8.0 | 23.0 | 0.00 | 0.00 | 0.00 | 28 | 1017.0 |
| 20260902093515 | 92 | 122 | 7.0 | 25.0 | 0.00 | 0.00 | 0.00 | 29 | 1017.0 |
| 20260902092523 | 92 | 73 | 6.0 | 17.0 | 0.00 | 0.00 | 0.00 | 29 | 1016.9 |
| 20260902091515 | 92 | 120 | 9.0 | 23.0 | 0.00 | 0.00 | 0.00 | 29 | 1016.8 |
| 20260902090523 | 92 | 121 | 6.0 | 17.0 | 0.00 | 0.00 | 0.00 | 29 | 1016.5 |
| 20260902085515 | 92 | 54 | 8.0 | 30.0 | 0.00 | 0.00 | 0.00 | 30 | 1016.6 |
| 20260902084543 | 91 | 77 | 6.0 | 23.0 | 0.00 | 0.00 | 0.00 | 30 | 1016.5 |
| 20260902083515 | 91 | 87 | 7.0 | 17.0 | 0.00 | 0.00 | 0.00 | 31 | 1016.5 |
| 20260902082543 | 91 | 40 | 9.0 | 23.0 | 0.00 | 0.00 | 0.00 | 33 | 1016.5 |
| 20260902081515 | 91 | 49 | 7.0 | 20.0 | 0.00 | 0.00 | 0.00 | 32 | 1016.5 |
| 20260902080523 | 91 | 120 | 6.0 | 15.0 | 0.00 | 0.00 | 0.00 | 33 | 1016.7 |
| 20260902075515 | 91 | 359 | 4.0 | 17.0 | 0.00 | 0.00 | 0.00 | 33 | 1016.5 |
| 20260902074523 | 90 | 34 | 2.0 | 8.0 | 0.00 | 0.00 | 0.00 | 33 | 1016.7 |
| 20260902073515 | 89 | 65 | 4.0 | 17.0 | 0.00 | 0.00 | 0.00 | 34 | 1016.6 |
| 20260902072523 | 89 | 126 | 3.0 | 10.0 | 0.00 | 0.00 | 0.00 | 34 | 1016.7 |
| 20260902071515 | 89 | 11 | 5.0 | 15.0 | 0.00 | 0.00 | 0.00 | 35 | 1016.8 |
| 20260902070523 | 88 | 20 | 4.0 | 15.0 | 0.00 | 0.00 | 0.00 | 35 | 1016.7 |
| 20260902065515 | 88 | 54 | 4.0 | 20.0 | 0.00 | 0.00 | 0.00 | 36 | 1016.5 |
| 20260902064523 | 88 | 109 | 5.0 | 15.0 | 0.00 | 0.00 | 0.00 | 36 | 1016.5 |
| 20260902063515 | 88 | 118 | 6.0 | 15.0 | 0.00 | 0.00 | 0.00 | 35 | 1016.5 |
| 20260902062523 | 88 | 130 | 5.0 | 15.0 | 0.00 | 0.00 | 0.00 | 36 | 1016.6 |
| 20260902061535 | 88 | 119 | 2.0 | 10.0 | 0.00 | 0.00 | 0.00 | 37 | 1016.5 |
| 20260902060523 | 88 | 132 | 1.0 | 5.0 | 0.00 | 0.00 | 0.00 | 37 | 1016.5 |
| 20260902055535 | 87 | 182 | 0.0 | 5.0 | 0.00 | 0.00 | 0.00 | 36 | 1016.5 |
| 20260902054603 | 86 | 118 | 4.0 | 13.0 | 0.00 | 0.00 | 0.00 | 38 | 1016.5 |
| 20260902053515 | 85 | 185 | 1.0 | 8.0 | 0.00 | 0.00 | 0.00 | 38 | 1016.4 |
| 20260902052523 | 84 | 165 | 1.0 | 5.0 | 0.00 | 0.00 | 0.00 | 40 | 1016.4 |
| 20260902051515 | 83 | 187 | 1.0 | 2.0 | 0.00 | 0.00 | 0.00 | 43 | 1016.4 |
| 20260902050523 | 82 | 0.0 | 0.0 | 0.00 | 0.00 | 0.00 | 46 | 1016.4 | |
| 20260902045515 | 81 | 197 | 1.0 | 5.0 | 0.00 | 0.00 | 0.00 | 47 | 1016.4 |
| 20260902044523 | 80 | 0.0 | 0.0 | 0.00 | 0.00 | 0.00 | 49 | 1016.2 | |
| 20260902043515 | 79 | 0.0 | 0.0 | 0.00 | 0.00 | 0.00 | 50 | 1016.2 | |
| 20260902042523 | 79 | 251 | 0.0 | 2.0 | 0.00 | 0.00 | 0.00 | 51 | 1016.2 |
| 20260902041515 | 79 | 205 | 0.0 | 2.0 | 0.00 | 0.00 | 0.00 | 50 | 1016.2 |
| 20260902040523 | 79 | 0.0 | 0.0 | 0.00 | 0.00 | 0.00 | 51 | 1016.1 | |
| 20260902035515 | 79 | 147 | 0.0 | 2.0 | 0.00 | 0.00 | 0.00 | 49 | 1016.1 |
| 20260902034523 | 79 | 161 | 2.0 | 5.0 | 0.00 | 0.00 | 0.00 | 48 | 1016.1 |
| 20260902033535 | 80 | 159 | 1.0 | 5.0 | 0.00 | 0.00 | 0.00 | 50 | 1016.0 |
| 20260902032523 | 80 | 148 | 1.0 | 5.0 | 0.00 | 0.00 | 0.00 | 50 | 1015.8 |
| 20260902031535 | 80 | 150 | 1.0 | 5.0 | 0.00 | 0.00 | 0.00 | 49 | 1015.9 |
| 20260902030523 | 80 | 146 | 2.0 | 8.0 | 0.00 | 0.00 | 0.00 | 49 | 1015.8 |
| 20260902025515 | 80 | 144 | 1.0 | 8.0 | 0.00 | 0.00 | 0.00 | 48 | 1015.8 |
| 20260902024523 | 80 | 137 | 1.0 | 5.0 | 0.00 | 0.00 | 0.00 | 48 | 1015.8 |
| 20260902023535 | 80 | 132 | 0.0 | 5.0 | 0.00 | 0.00 | 0.00 | 48 | 1015.8 |
| 20260902022543 | 80 | 149 | 1.0 | 5.0 | 0.00 | 0.00 | 0.00 | 49 | 1015.8 |
| 20260902021515 | 81 | 161 | 2.0 | 5.0 | 0.00 | 0.00 | 0.00 | 48 | 1016.0 |
| 20260902020523 | 81 | 144 | 1.0 | 5.0 | 0.00 | 0.00 | 0.00 | 49 | 1015.8 |
| 20260902015535 | 81 | 117 | 0.0 | 5.0 | 0.00 | 0.00 | 0.00 | 48 | 1015.8 |
| 20260902014543 | 81 | 122 | 2.0 | 8.0 | 0.00 | 0.00 | 0.00 | 47 | 1016.1 |
| 20260902013515 | 81 | 142 | 2.0 | 8.0 | 0.00 | 0.00 | 0.00 | 47 | 1016.1 |
| 20260902012523 | 81 | 130 | 3.0 | 10.0 | 0.00 | 0.00 | 0.00 | 47 | 1016.0 |
| 20260902011535 | 81 | 156 | 1.0 | 8.0 | 0.00 | 0.00 | 0.00 | 47 | 1015.9 |
| 20260902010543 | 82 | 0.0 | 0.0 | 0.00 | 0.00 | 0.00 | 48 | 1016.0 | |
| 20260902005515 | 82 | 133 | 1.0 | 5.0 | 0.00 | 0.00 | 0.00 | 46 | 1015.8 |
| 20260902004523 | 82 | 120 | 0.0 | 2.0 | 0.00 | 0.00 | 0.00 | 46 | 1015.8 |
| 20260902003515 | 82 | 124 | 1.0 | 5.0 | 0.00 | 0.00 | 0.00 | 45 | 1015.8 |
| 20260902002523 | 82 | 130 | 1.0 | 5.0 | 0.00 | 0.00 | 0.00 | 45 | 1015.9 |
| 20260902001515 | 82 | 131 | 2.0 | 10.0 | 0.00 | 0.00 | 0.00 | 47 | 1015.8 |
| 20260902000523 | 82 | 125 | 2.0 | 10.0 | 0.00 | 0.00 | 0.00 | 48 | 1015.8 |
| 20260901235515 | 82 | 116 | 1.0 | 8.0 | 0.00 | 0.00 | 0.00 | 48 | 1015.9 |
| 20260901234523 | 82 | 117 | 2.0 | 8.0 | 0.00 | 0.00 | 0.00 | 48 | 1015.8 |
| 20260901233515 | 82 | 125 | 2.0 | 5.0 | 0.00 | 0.00 | 0.00 | 49 | 1015.9 |
| 20260901232543 | 83 | 115 | 2.0 | 5.0 | 0.00 | 0.00 | 0.00 | 49 | 1015.8 |
| 20260901231515 | 83 | 132 | 3.0 | 8.0 | 0.00 | 0.00 | 0.00 | 49 | 1015.9 |
| 20260901230522 | 83 | 127 | 4.0 | 10.0 | 0.00 | 0.00 | 0.00 | 49 | 1016.0 |
| 20260901225551 | 83 | 114 | 3.0 | 8.0 | 0.00 | 0.00 | 0.00 | 49 | 1016.0 |
| 20260901224523 | 83 | 129 | 4.0 | 10.0 | 0.00 | 0.00 | 0.00 | 49 | 1016.1 |
| 20260901223530 | 83 | 133 | 5.0 | 10.0 | 0.00 | 0.00 | 0.00 | 50 | 1016.1 |
| 20260901222523 | 83 | 127 | 6.0 | 13.0 | 0.00 | 0.00 | 0.00 | 50 | 1016.2 |
| 20260901221531 | 83 | 120 | 5.0 | 13.0 | 0.00 | 0.00 | 0.00 | 50 | 1016.2 |
| 20260901220523 | 83 | 128 | 6.0 | 15.0 | 0.00 | 0.00 | 0.00 | 50 | 1016.1 |
| 20260901215516 | 83 | 130 | 5.0 | 10.0 | 0.00 | 0.00 | 0.00 | 50 | 1016.0 |
| 20260901214524 | 83 | 132 | 3.0 | 15.0 | 0.00 | 0.00 | 0.00 | 49 | 1016.1 |
| 20260901213516 | 83 | 130 | 3.0 | 10.0 | 0.00 | 0.00 | 0.00 | 49 | 1016.1 |
| 20260901212524 | 83 | 122 | 3.0 | 10.0 | 0.00 | 0.00 | 0.00 | 49 | 1016.1 |
| 20260901211515 | 83 | 124 | 2.0 | 8.0 | 0.00 | 0.00 | 0.00 | 49 | 1015.9 |
| 20260901210524 | 83 | 119 | 0.0 | 5.0 | 0.00 | 0.00 | 0.00 | 49 | 1016.0 |
| 20260901205516 | 83 | 10 | 1.0 | 8.0 | 0.00 | 0.00 | 0.00 | 50 | 1016.1 |
| 20260901204523 | 83 | 50 | 0.0 | 2.0 | 0.00 | 0.00 | 0.00 | 50 | 1016.1 |
| 20260901203515 | 83 | 354 | 0.0 | 2.0 | 0.00 | 0.00 | 0.00 | 50 | 1015.9 |
| 20260901202544 | 83 | 157 | 1.0 | 5.0 | 0.00 | 0.00 | 0.00 | 49 | 1016.1 |
| 20260901201516 | 83 | 10 | 1.0 | 2.0 | 0.00 | 0.00 | 0.00 | 49 | 1016.0 |
| 20260901200523 | 83 | 10 | 3.0 | 8.0 | 0.00 | 0.00 | 0.00 | 49 | 1016.0 |
| 20260901195515 | 84 | 15 | 3.0 | 8.0 | 0.00 | 0.00 | 0.00 | 49 | 1016.1 |
| 20260901194543 | 84 | 68 | 1.0 | 5.0 | 0.00 | 0.00 | 0.00 | 49 | 1016.0 |
| 20260901193515 | 84 | 114 | 1.0 | 5.0 | 0.00 | 0.00 | 0.00 | 48 | 1016.0 |
| 20260901192524 | 84 | 114 | 3.0 | 10.0 | 0.00 | 0.00 | 0.00 | 48 | 1016.1 |
| 20260901191515 | 84 | 127 | 2.0 | 8.0 | 0.00 | 0.00 | 0.00 | 48 | 1016.0 |
| 20260901190523 | 84 | 134 | 3.0 | 10.0 | 0.00 | 0.00 | 0.00 | 48 | 1015.9 |
| 20260901185515 | 84 | 121 | 2.0 | 8.0 | 0.00 | 0.00 | 0.00 | 47 | 1015.8 |
| 20260901184524 | 84 | 125 | 2.0 | 8.0 | 0.00 | 0.00 | 0.00 | 47 | 1015.9 |
| 20260901183515 | 85 | 350 | 1.0 | 8.0 | 0.00 | 0.00 | 0.00 | 47 | 1015.9 |
| 20260901182523 | 85 | 354 | 2.0 | 8.0 | 0.00 | 0.00 | 0.00 | 46 | 1015.7 |
| 20260901181535 | 85 | 355 | 1.0 | 8.0 | 0.00 | 0.00 | 0.00 | 46 | 1015.6 |
| 20260901180523 | 85 | 77 | 2.0 | 8.0 | 0.00 | 0.00 | 0.00 | 45 | 1015.6 |
| 20260901175515 | 86 | 360 | 2.0 | 8.0 | 0.00 | 0.00 | 0.00 | 45 | 1015.4 |
| 20260901174523 | 86 | 39 | 2.0 | 8.0 | 0.00 | 0.00 | 0.00 | 44 | 1015.3 |
| 20260901173515 | 86 | 84 | 2.0 | 10.0 | 0.00 | 0.00 | 0.00 | 44 | 1015.1 |
| 20260901172524 | 86 | 125 | 2.0 | 8.0 | 0.00 | 0.00 | 0.00 | 44 | 1015.0 |
| 20260901171515 | 87 | 121 | 2.0 | 8.0 | 0.00 | 0.00 | 0.00 | 43 | 1015.0 |
| 20260901170525 | 87 | 128 | 2.0 | 8.0 | 0.00 | 0.00 | 0.00 | 43 | 1015.2 |
| 20260901165515 | 87 | 130 | 3.0 | 10.0 | 0.00 | 0.00 | 0.00 | 43 | 1015.0 |
| 20260901164523 | 88 | 126 | 2.0 | 5.0 | 0.00 | 0.00 | 0.00 | 43 | 1015.0 |
| 20260901163515 | 88 | 127 | 5.0 | 13.0 | 0.00 | 0.00 | 0.00 | 42 | 1014.7 |
| 20260901162523 | 89 | 135 | 4.0 | 10.0 | 0.00 | 0.00 | 0.00 | 41 | 1014.7 |
| 20260901161516 | 90 | 129 | 3.0 | 10.0 | 0.00 | 0.00 | 0.00 | 40 | 1014.7 |